createdAt,value
2017-01-25T00:00:20.016Z,26.2
2017-01-25T00:01:20.654Z,26.2
2017-01-25T00:02:20.834Z,26.2
2017-01-25T00:03:19.821Z,26.2
2017-01-25T00:04:21.166Z,26.2
2017-01-25T00:05:20.877Z,26.2
2017-01-25T00:06:21.001Z,26.2
2017-01-25T00:07:21.085Z,26.2
2017-01-25T00:08:20.037Z,26.2
2017-01-25T00:09:21.263Z,26.2
2017-01-25T00:10:20.484Z,26.2
2017-01-25T00:11:21.328Z,26.2
2017-01-25T00:12:21.436Z,26.2
2017-01-25T00:13:20.295Z,26.2
2017-01-25T00:14:20.381Z,26.2
2017-01-25T00:15:20.347Z,26.2
2017-01-25T00:16:21.807Z,26.2
2017-01-25T00:17:21.460Z,26.2
2017-01-25T00:18:21.594Z,26.2
2017-01-25T00:19:20.519Z,26.2
2017-01-25T00:20:21.748Z,26.2
2017-01-25T00:21:21.697Z,26.2
2017-01-25T00:22:22.029Z,26.2
2017-01-25T00:23:20.969Z,26.2
2017-01-25T00:24:21.942Z,26.2
2017-01-25T00:25:21.920Z,26.2
2017-01-25T00:26:21.008Z,26.2
2017-01-25T00:27:22.074Z,26.2
2017-01-25T00:28:22.494Z,26.2
2017-01-25T00:29:21.100Z,26.2
2017-01-25T00:30:22.224Z,26.2
2017-01-25T00:31:22.921Z,26.2
2017-01-25T00:32:21.265Z,26.2
2017-01-25T00:33:21.300Z,26.2
2017-01-25T00:34:21.664Z,26.2
2017-01-25T00:35:22.410Z,26.2
2017-01-25T00:36:22.511Z,26.2
2017-01-25T00:37:21.792Z,26.1
2017-01-25T00:38:21.531Z,26.1
2017-01-25T00:39:22.637Z,26.1
2017-01-25T00:40:22.900Z,26.1
2017-01-25T00:41:22.841Z,26.1
2017-01-25T00:42:22.766Z,26.2
2017-01-25T00:43:21.657Z,26.1
2017-01-25T00:44:22.751Z,26.2
2017-01-25T00:45:22.797Z,26.2
2017-01-25T00:46:23.242Z,26.1
2017-01-25T00:47:23.748Z,26.1
2017-01-25T00:48:21.989Z,26.1
2017-01-25T00:49:23.075Z,26.1
2017-01-25T00:50:22.107Z,26.1
2017-01-25T00:51:23.230Z,26.1
2017-01-25T00:52:22.363Z,26.1
2017-01-25T00:53:23.943Z,26.2
2017-01-25T00:54:22.282Z,26.1
2017-01-25T00:55:22.390Z,26.1
2017-01-25T00:56:23.524Z,26.1
2017-01-25T00:57:23.518Z,26.1
2017-01-25T00:58:23.828Z,26.1
2017-01-25T00:59:23.494Z,26.1
2017-01-25T01:00:23.069Z,26.1
2017-01-25T01:01:22.683Z,26.1
2017-01-25T01:02:23.742Z,26.1
2017-01-25T01:03:22.907Z,26.1
2017-01-25T01:04:22.994Z,26.1
2017-01-25T01:05:23.873Z,26.1
2017-01-25T01:06:23.864Z,26.1
2017-01-25T01:07:22.790Z,26.1
2017-01-25T01:08:23.103Z,26.1
2017-01-25T01:09:24.111Z,26.1
2017-01-25T01:10:23.456Z,26.1
2017-01-25T01:11:23.172Z,26.1
2017-01-25T01:12:23.259Z,26.1
2017-01-25T01:13:24.276Z,26.1
2017-01-25T01:14:24.378Z,26.1
2017-01-25T01:15:24.396Z,26.1
2017-01-25T01:16:24.675Z,26.1
2017-01-25T01:17:23.361Z,26.1
2017-01-25T01:18:23.416Z,26.1
2017-01-25T01:19:24.482Z,26.1
2017-01-25T01:20:23.483Z,26.1
2017-01-25T01:21:23.472Z,26.1
2017-01-25T01:22:24.981Z,26.1
2017-01-25T01:23:24.715Z,26.1
2017-01-25T01:24:23.732Z,26.1
2017-01-25T01:25:23.819Z,26.1
2017-01-25T01:26:24.912Z,26.1
2017-01-25T01:27:23.888Z,26.1
2017-01-25T01:28:24.962Z,26.1
2017-01-25T01:29:24.750Z,26.1
2017-01-25T01:30:24.051Z,26.1
2017-01-25T01:31:23.956Z,26.1
2017-01-25T01:32:24.093Z,26.1
2017-01-25T01:33:24.093Z,26.1
2017-01-25T01:34:25.453Z,26.1
2017-01-25T01:35:24.280Z,26.1
2017-01-25T01:36:25.406Z,26.1
2017-01-25T01:37:25.372Z,26.1
2017-01-25T01:38:25.407Z,26.1
2017-01-25T01:39:25.397Z,26.1
2017-01-25T01:40:25.834Z,26.1
2017-01-25T01:41:25.666Z,26.1
2017-01-25T01:42:24.636Z,26.1
2017-01-25T01:43:24.822Z,26.1
2017-01-25T01:44:24.791Z,26.1
2017-01-25T01:45:24.781Z,26.1
2017-01-25T01:46:26.188Z,26.1
2017-01-25T01:47:26.624Z,26.1
2017-01-25T01:48:25.026Z,26.1
2017-01-25T01:49:26.002Z,26.1
2017-01-25T01:50:26.001Z,26.1
2017-01-25T01:51:25.081Z,26.1
2017-01-25T01:52:26.550Z,26.1
2017-01-25T01:53:25.854Z,26.1
2017-01-25T01:54:25.195Z,26.1
2017-01-25T01:55:26.390Z,26.1
2017-01-25T01:56:25.976Z,26
2017-01-25T01:57:26.531Z,26
2017-01-25T01:58:25.783Z,26.1
2017-01-25T01:59:25.623Z,26
2017-01-25T02:00:26.724Z,26
2017-01-25T02:01:26.698Z,26
2017-01-25T02:02:26.794Z,26
2017-01-25T02:03:25.771Z,26.1
2017-01-25T02:04:26.086Z,26
2017-01-25T02:05:26.876Z,26
2017-01-25T02:06:25.771Z,26
2017-01-25T02:07:27.711Z,26.1
2017-01-25T02:08:26.882Z,26.1
2017-01-25T02:09:27.026Z,26.1
2017-01-25T02:10:27.366Z,26
2017-01-25T02:11:27.154Z,26
2017-01-25T02:12:26.164Z,26.1
2017-01-25T02:13:27.229Z,26.1
2017-01-25T02:14:26.115Z,26.1
2017-01-25T02:15:27.364Z,26.1
2017-01-25T02:16:27.805Z,26
2017-01-25T02:17:27.415Z,26.1
2017-01-25T02:18:27.472Z,26.1
2017-01-25T02:19:26.456Z,26
2017-01-25T02:20:26.552Z,26
2017-01-25T02:21:27.609Z,26
2017-01-25T02:22:27.908Z,26.1
2017-01-25T02:23:26.623Z,26.1
2017-01-25T02:24:26.674Z,26.1
2017-01-25T02:25:26.627Z,26.1
2017-01-25T02:26:27.838Z,26.1
2017-01-25T02:27:27.867Z,26.1
2017-01-25T02:28:28.272Z,26.1
2017-01-25T02:29:26.880Z,26.1
2017-01-25T02:30:27.075Z,26.1
2017-01-25T02:31:26.954Z,26.1
2017-01-25T02:32:26.993Z,26.1
2017-01-25T02:33:27.113Z,26
2017-01-25T02:34:27.383Z,26.1
2017-01-25T02:35:28.915Z,26
2017-01-25T02:36:28.313Z,26
2017-01-25T02:37:28.327Z,26
2017-01-25T02:38:28.431Z,26
2017-01-25T02:39:28.424Z,26
2017-01-25T02:40:28.877Z,26
2017-01-25T02:41:27.551Z,26
2017-01-25T02:42:28.558Z,26
2017-01-25T02:43:27.514Z,26
2017-01-25T02:44:28.363Z,26
2017-01-25T02:45:27.706Z,26
2017-01-25T02:46:28.032Z,26
2017-01-25T02:47:28.732Z,26
2017-01-25T02:48:28.851Z,26
2017-01-25T02:49:27.757Z,26
2017-01-25T02:50:27.905Z,26
2017-01-25T02:51:28.961Z,26
2017-01-25T02:52:28.181Z,26
2017-01-25T02:53:28.068Z,26
2017-01-25T02:54:29.204Z,26
2017-01-25T02:55:28.172Z,26
2017-01-25T02:56:28.173Z,26
2017-01-25T02:57:28.267Z,26
2017-01-25T02:58:29.633Z,26
2017-01-25T02:59:28.323Z,26
2017-01-25T03:00:29.362Z,26
2017-01-25T03:01:28.396Z,26
2017-01-25T03:02:28.390Z,26
2017-01-25T03:03:29.402Z,26
2017-01-25T03:04:28.667Z,26
2017-01-25T03:05:28.547Z,26
2017-01-25T03:06:29.623Z,26
2017-01-25T03:07:29.647Z,26
2017-01-25T03:08:29.188Z,26
2017-01-25T03:09:30.280Z,26
2017-01-25T03:10:29.028Z,26
2017-01-25T03:11:29.878Z,26
2017-01-25T03:12:29.991Z,26
2017-01-25T03:13:30.058Z,26
2017-01-25T03:14:28.993Z,26
2017-01-25T03:15:30.212Z,26
2017-01-25T03:16:29.432Z,26
2017-01-25T03:17:29.281Z,26
2017-01-25T03:18:31.246Z,26
2017-01-25T03:19:30.557Z,26
2017-01-25T03:20:30.107Z,26
2017-01-25T03:21:30.605Z,26
2017-01-25T03:22:30.977Z,26
2017-01-25T03:23:30.731Z,26
2017-01-25T03:24:29.841Z,26
2017-01-25T03:25:30.450Z,26
2017-01-25T03:26:29.864Z,26
2017-01-25T03:27:29.871Z,26
2017-01-25T03:28:31.277Z,26
2017-01-25T03:29:31.024Z,26
2017-01-25T03:30:31.199Z,26
2017-01-25T03:31:30.142Z,26
2017-01-25T03:32:30.144Z,26
2017-01-25T03:33:30.201Z,26
2017-01-25T03:34:30.532Z,26
2017-01-25T03:35:31.430Z,26
2017-01-25T03:36:31.528Z,26
2017-01-25T03:37:30.470Z,26
2017-01-25T03:38:31.501Z,26
2017-01-25T03:39:30.554Z,26
2017-01-25T03:40:30.818Z,26
2017-01-25T03:41:30.672Z,26
2017-01-25T03:42:31.854Z,26
2017-01-25T03:43:30.756Z,26
2017-01-25T03:44:31.843Z,26
2017-01-25T03:45:31.958Z,26
2017-01-25T03:46:32.283Z,26
2017-01-25T03:47:31.983Z,25.9
2017-01-25T03:48:30.972Z,26
2017-01-25T03:49:31.073Z,26
2017-01-25T03:50:32.101Z,26
2017-01-25T03:51:32.184Z,26
2017-01-25T03:52:31.499Z,26
2017-01-25T03:53:32.951Z,26
2017-01-25T03:54:32.575Z,26
2017-01-25T03:55:32.555Z,26
2017-01-25T03:56:33.236Z,26
2017-01-25T03:57:31.410Z,26
2017-01-25T03:58:33.438Z,26
2017-01-25T03:59:31.460Z,26
2017-01-25T04:00:31.542Z,26
2017-01-25T04:01:31.536Z,26
2017-01-25T04:02:31.668Z,26
2017-01-25T04:03:31.648Z,25.9
2017-01-25T04:04:33.182Z,25.9
2017-01-25T04:05:31.892Z,25.9
2017-01-25T04:06:31.810Z,25.9
2017-01-25T04:07:32.984Z,25.9
2017-01-25T04:08:31.946Z,26
2017-01-25T04:09:32.118Z,26
2017-01-25T04:10:33.482Z,26
2017-01-25T04:11:32.156Z,26
2017-01-25T04:12:32.929Z,26
2017-01-25T04:13:32.407Z,26
2017-01-25T04:14:32.356Z,26
2017-01-25T04:15:33.536Z,26
2017-01-25T04:16:32.872Z,26
2017-01-25T04:17:32.596Z,26
2017-01-25T04:18:32.729Z,25.9
2017-01-25T04:19:33.814Z,25.9
2017-01-25T04:20:33.775Z,25.9
2017-01-25T04:21:33.415Z,25.9
2017-01-25T04:22:33.218Z,25.9
2017-01-25T04:23:33.989Z,25.9
2017-01-25T04:24:34.656Z,25.9
2017-01-25T04:25:34.008Z,25.9
2017-01-25T04:26:34.638Z,25.9
2017-01-25T04:27:33.062Z,25.9
2017-01-25T04:28:33.348Z,25.9
2017-01-25T04:29:33.796Z,25.9
2017-01-25T04:30:34.227Z,25.9
2017-01-25T04:31:33.225Z,25.9
2017-01-25T04:32:33.265Z,25.9
2017-01-25T04:33:34.416Z,25.8
2017-01-25T04:34:34.742Z,25.6
2017-01-25T04:35:34.552Z,25.5
2017-01-25T04:36:34.609Z,25.4
2017-01-25T04:37:34.635Z,25.3
2017-01-25T04:38:34.631Z,25.2
2017-01-25T04:39:33.631Z,25.1
2017-01-25T04:40:34.591Z,25.1
2017-01-25T04:41:33.651Z,25
2017-01-25T04:42:33.682Z,25
2017-01-25T04:43:33.721Z,25
2017-01-25T04:44:35.046Z,25.3
2017-01-25T04:45:34.947Z,25.5
2017-01-25T04:46:34.902Z,25.9
2017-01-25T04:47:34.990Z,26.2
2017-01-25T04:48:34.011Z,26.7
2017-01-25T04:49:35.874Z,26.9
2017-01-25T04:50:35.260Z,27
2017-01-25T04:51:34.273Z,27.2
2017-01-25T04:52:35.090Z,27.4
2017-01-25T04:53:34.296Z,27.6
2017-01-25T04:54:36.542Z,27.8
2017-01-25T04:55:34.377Z,28
2017-01-25T04:56:34.450Z,28.1
2017-01-25T04:57:34.687Z,28.2
2017-01-25T04:58:36.541Z,28.3
2017-01-25T04:59:35.686Z,28.4
2017-01-25T05:00:35.755Z,28.5
2017-01-25T05:01:34.755Z,28.6
2017-01-25T05:02:34.674Z,28.7
2017-01-25T05:03:36.447Z,28.7
2017-01-25T05:04:36.274Z,28.8
2017-01-25T05:05:34.950Z,28.8
2017-01-25T05:06:35.014Z,28.8
2017-01-25T05:07:36.252Z,28.9
2017-01-25T05:08:35.166Z,28.9
2017-01-25T05:09:36.313Z,28.9
2017-01-25T05:10:35.581Z,28.9
2017-01-25T05:11:36.393Z,29
2017-01-25T05:12:36.453Z,29
2017-01-25T05:13:35.708Z,29
2017-01-25T05:14:36.514Z,29
2017-01-25T05:15:36.563Z,29
2017-01-25T05:16:36.875Z,29
2017-01-25T05:17:35.636Z,29
2017-01-25T05:18:35.584Z,29
2017-01-25T05:19:37.432Z,29
2017-01-25T05:20:36.783Z,29
2017-01-25T05:21:36.850Z,29
2017-01-25T05:22:37.162Z,29
2017-01-25T05:23:37.524Z,29
2017-01-25T05:24:36.926Z,29
2017-01-25T05:25:35.993Z,28.9
2017-01-25T05:26:35.973Z,28.9
2017-01-25T05:27:37.142Z,28.9
2017-01-25T05:28:36.503Z,28.9
2017-01-25T05:29:36.098Z,28.9
2017-01-25T05:30:37.345Z,28.9
2017-01-25T05:31:37.318Z,28.9
2017-01-25T05:32:36.288Z,28.9
2017-01-25T05:33:37.377Z,28.9
2017-01-25T05:34:37.713Z,28.9
2017-01-25T05:35:37.972Z,28.9
2017-01-25T05:36:38.135Z,28.9
2017-01-25T05:37:36.628Z,28.8
2017-01-25T05:38:37.681Z,28.8
2017-01-25T05:39:37.617Z,28.8
2017-01-25T05:40:37.505Z,28.8
2017-01-25T05:41:37.712Z,28.8
2017-01-25T05:42:36.674Z,28.8
2017-01-25T05:43:36.787Z,28.7
2017-01-25T05:44:36.876Z,28.7
2017-01-25T05:45:37.958Z,28.7
2017-01-25T05:46:38.887Z,28.7
2017-01-25T05:47:37.621Z,28.7
2017-01-25T05:48:38.060Z,28.6
2017-01-25T05:49:38.417Z,28.6
2017-01-25T05:50:37.101Z,28.6
2017-01-25T05:51:37.100Z,28.6
2017-01-25T05:52:38.427Z,28.6
2017-01-25T05:53:38.157Z,28.6
2017-01-25T05:54:38.243Z,28.5
2017-01-25T05:55:37.729Z,28.5
2017-01-25T05:56:37.244Z,28.5
2017-01-25T05:57:37.321Z,28.5
2017-01-25T05:58:37.661Z,28.5
2017-01-25T05:59:38.437Z,28.4
2017-01-25T06:00:38.660Z,28.4
2017-01-25T06:01:37.548Z,28.4
2017-01-25T06:02:37.667Z,28.4
2017-01-25T06:03:38.843Z,28.4
2017-01-25T06:04:38.006Z,28.3
2017-01-25T06:05:37.756Z,28.3
2017-01-25T06:06:37.687Z,28.3
2017-01-25T06:07:38.786Z,28.3
2017-01-25T06:08:39.918Z,28.3
2017-01-25T06:09:38.972Z,28.3
2017-01-25T06:10:38.330Z,28.2
2017-01-25T06:11:39.138Z,28.2
2017-01-25T06:12:39.359Z,28.2
2017-01-25T06:13:38.863Z,28.2
2017-01-25T06:14:39.859Z,28.2
2017-01-25T06:15:39.340Z,28.2
2017-01-25T06:16:38.511Z,28.2
2017-01-25T06:17:39.471Z,28.1
2017-01-25T06:18:38.416Z,28.1
2017-01-25T06:19:39.428Z,28.1
2017-01-25T06:20:39.442Z,28.1
2017-01-25T06:21:40.091Z,28.1
2017-01-25T06:22:39.874Z,28.1
2017-01-25T06:23:39.037Z,28
2017-01-25T06:24:38.549Z,28
2017-01-25T06:25:39.771Z,28
2017-01-25T06:26:38.779Z,28
2017-01-25T06:27:38.788Z,28
2017-01-25T06:28:40.728Z,28
2017-01-25T06:29:39.866Z,27.9
2017-01-25T06:30:38.841Z,27.9
2017-01-25T06:31:39.895Z,27.9
2017-01-25T06:32:39.923Z,27.9
2017-01-25T06:33:40.131Z,27.9
2017-01-25T06:34:41.021Z,27.9
2017-01-25T06:35:40.074Z,27.9
2017-01-25T06:36:40.094Z,27.9
2017-01-25T06:37:40.132Z,27.9
2017-01-25T06:38:39.119Z,27.9
2017-01-25T06:39:40.251Z,27.8
2017-01-25T06:40:41.280Z,27.8
2017-01-25T06:41:40.379Z,27.8
2017-01-25T06:42:43.097Z,27.8
2017-01-25T06:43:39.447Z,27.8
2017-01-25T06:44:39.376Z,27.8
2017-01-25T06:45:39.439Z,27.8
2017-01-25T06:46:39.877Z,27.8
2017-01-25T06:47:40.549Z,27.8
2017-01-25T06:48:39.600Z,27.8
2017-01-25T06:49:40.692Z,27.8
2017-01-25T06:50:39.720Z,27.7
2017-01-25T06:51:39.608Z,27.7
2017-01-25T06:52:40.071Z,27.7
2017-01-25T06:53:39.850Z,27.7
2017-01-25T06:54:40.806Z,27.7
2017-01-25T06:55:40.841Z,27.7
2017-01-25T06:56:39.797Z,27.7
2017-01-25T06:57:39.888Z,27.7
2017-01-25T06:58:40.163Z,27.7
2017-01-25T06:59:39.916Z,27.7
2017-01-25T07:00:41.077Z,27.7
2017-01-25T07:01:41.363Z,27.7
2017-01-25T07:02:41.269Z,27.6
2017-01-25T07:03:40.399Z,27.6
2017-01-25T07:04:41.812Z,27.6
2017-01-25T07:05:40.999Z,27.6
2017-01-25T07:06:40.481Z,27.6
2017-01-25T07:07:41.660Z,27.6
2017-01-25T07:08:41.655Z,27.6
2017-01-25T07:09:40.602Z,27.6
2017-01-25T07:10:42.061Z,27.6
2017-01-25T07:11:41.712Z,27.5
2017-01-25T07:12:41.811Z,27.5
2017-01-25T07:13:42.420Z,27.5
2017-01-25T07:14:41.893Z,27.5
2017-01-25T07:15:40.840Z,27.5
2017-01-25T07:16:41.195Z,27.5
2017-01-25T07:17:40.938Z,27.5
2017-01-25T07:18:41.105Z,27.5
2017-01-25T07:19:41.725Z,27.5
2017-01-25T07:20:42.229Z,27.5
2017-01-25T07:21:42.354Z,27.5
2017-01-25T07:22:42.594Z,27.4
2017-01-25T07:23:41.281Z,27.4
2017-01-25T07:24:42.088Z,27.4
2017-01-25T07:25:41.471Z,27.4
2017-01-25T07:26:41.432Z,27.4
2017-01-25T07:27:41.608Z,27.4
2017-01-25T07:28:42.396Z,27.4
2017-01-25T07:29:41.476Z,27.4
2017-01-25T07:30:41.602Z,27.4
2017-01-25T07:31:42.723Z,27.4
2017-01-25T07:32:42.703Z,27.3
2017-01-25T07:33:42.797Z,27.4
2017-01-25T07:34:43.756Z,27.3
2017-01-25T07:35:42.967Z,27.3
2017-01-25T07:36:43.015Z,27.3
2017-01-25T07:37:43.117Z,27.3
2017-01-25T07:38:43.179Z,27.3
2017-01-25T07:39:42.167Z,27.3
2017-01-25T07:40:43.661Z,27.3
2017-01-25T07:41:43.348Z,27.3
2017-01-25T07:42:43.373Z,27.3
2017-01-25T07:43:43.503Z,27.3
2017-01-25T07:44:42.388Z,27.2
2017-01-25T07:45:43.576Z,27.2
2017-01-25T07:46:43.865Z,27.2
2017-01-25T07:47:43.717Z,27.2
2017-01-25T07:48:43.062Z,27.2
2017-01-25T07:49:44.386Z,27.2
2017-01-25T07:50:42.641Z,27.1
2017-01-25T07:51:43.758Z,27.1
2017-01-25T07:52:44.063Z,27.1
2017-01-25T07:53:44.392Z,27.1
2017-01-25T07:54:43.881Z,27.1
2017-01-25T07:55:43.702Z,27.1
2017-01-25T07:56:44.078Z,27.1
2017-01-25T07:57:42.942Z,27.1
2017-01-25T07:58:43.394Z,27.1
2017-01-25T07:59:43.132Z,27.1
2017-01-25T08:00:43.795Z,27.1
2017-01-25T08:01:43.304Z,27.1
2017-01-25T08:02:45.133Z,27
2017-01-25T08:03:43.442Z,27
2017-01-25T08:04:43.899Z,27
2017-01-25T08:05:44.582Z,27
2017-01-25T08:06:43.553Z,27
2017-01-25T08:07:45.464Z,27
2017-01-25T08:08:45.502Z,27
2017-01-25T08:09:43.796Z,27
2017-01-25T08:10:44.999Z,27
2017-01-25T08:11:44.922Z,27
2017-01-25T08:12:43.865Z,27
2017-01-25T08:13:44.978Z,27
2017-01-25T08:14:45.745Z,27
2017-01-25T08:15:44.660Z,26.9
2017-01-25T08:16:45.380Z,26.9
2017-01-25T08:17:44.206Z,26.9
2017-01-25T08:18:44.306Z,26.9
2017-01-25T08:19:47.147Z,26.9
2017-01-25T08:20:45.020Z,26.9
2017-01-25T08:21:45.625Z,26.9
2017-01-25T08:22:45.363Z,26.9
2017-01-25T08:23:44.496Z,26.9
2017-01-25T08:24:44.571Z,26.9
2017-01-25T08:25:45.649Z,26.9
2017-01-25T08:26:45.604Z,26.9
2017-01-25T08:27:46.225Z,26.9
2017-01-25T08:28:46.003Z,26.8
2017-01-25T08:29:44.650Z,26.8
2017-01-25T08:30:44.736Z,26.8
2017-01-25T08:31:44.669Z,26.8
2017-01-25T08:32:45.391Z,26.8
2017-01-25T08:33:45.915Z,26.8
2017-01-25T08:34:46.844Z,26.8
2017-01-25T08:35:46.632Z,26.8
2017-01-25T08:36:46.020Z,26.8
2017-01-25T08:37:45.059Z,26.7
2017-01-25T08:38:46.513Z,26.7
2017-01-25T08:39:45.162Z,26.7
2017-01-25T08:40:46.587Z,26.7
2017-01-25T08:41:46.950Z,26.7
2017-01-25T08:42:47.023Z,26.7
2017-01-25T08:43:46.012Z,26.7
2017-01-25T08:44:45.402Z,26.7
2017-01-25T08:45:47.255Z,26.7
2017-01-25T08:46:45.835Z,26.6
2017-01-25T08:47:46.669Z,26.6
2017-01-25T08:48:46.360Z,26.6
2017-01-25T08:49:45.569Z,26.6
2017-01-25T08:50:46.745Z,26.6
2017-01-25T08:51:46.400Z,26.6
2017-01-25T08:52:47.896Z,26.6
2017-01-25T08:53:46.989Z,26.6
2017-01-25T08:54:45.948Z,26.6
2017-01-25T08:55:47.267Z,26.6
2017-01-25T08:56:47.868Z,26.6
2017-01-25T08:57:47.323Z,26.6
2017-01-25T08:58:47.556Z,26.5
2017-01-25T08:59:46.270Z,26.5
2017-01-25T09:00:46.367Z,26.5
2017-01-25T09:01:46.889Z,26.5
2017-01-25T09:02:47.551Z,26.5
2017-01-25T09:03:48.279Z,26.5
2017-01-25T09:04:49.387Z,26.5
2017-01-25T09:05:50.697Z,26.5
2017-01-25T09:06:48.306Z,26.5
2017-01-25T09:07:47.878Z,26.5
2017-01-25T09:08:47.901Z,26.4
2017-01-25T09:09:46.965Z,26.4
2017-01-25T09:10:48.111Z,26.4
2017-01-25T09:11:48.125Z,26.4
2017-01-25T09:12:48.233Z,26.4
2017-01-25T09:13:47.780Z,26.4
2017-01-25T09:14:48.252Z,26.4
2017-01-25T09:15:48.346Z,26.4
2017-01-25T09:16:48.832Z,26.4
2017-01-25T09:17:47.404Z,26.4
2017-01-25T09:18:48.674Z,26.4
2017-01-25T09:19:51.845Z,26.3
2017-01-25T09:20:50.200Z,26.3
2017-01-25T09:21:48.737Z,26.3
2017-01-25T09:22:48.941Z,26.3
2017-01-25T09:23:47.670Z,26.3
2017-01-25T09:24:48.823Z,26.3
2017-01-25T09:25:47.794Z,26.3
2017-01-25T09:26:47.729Z,26.3
2017-01-25T09:27:47.755Z,26.3
2017-01-25T09:28:48.105Z,26.3
2017-01-25T09:29:48.989Z,26.2
2017-01-25T09:30:47.911Z,26.2
2017-01-25T09:31:49.874Z,26.2
2017-01-25T09:32:49.230Z,26.2
2017-01-25T09:33:48.047Z,26.2
2017-01-25T09:34:50.814Z,26.2
2017-01-25T09:35:49.846Z,26.2
2017-01-25T09:36:48.235Z,26.2
2017-01-25T09:37:48.980Z,26.2
2017-01-25T09:38:48.430Z,26.2
2017-01-25T09:39:48.398Z,26.2
2017-01-25T09:40:48.797Z,26.2
2017-01-25T09:41:49.267Z,26.2
2017-01-25T09:42:50.272Z,26.2
2017-01-25T09:43:49.736Z,26.2
2017-01-25T09:44:51.010Z,26.2
2017-01-25T09:45:49.878Z,26.2
2017-01-25T09:46:50.209Z,26.2
2017-01-25T09:47:50.002Z,26.2
2017-01-25T09:48:48.852Z,26.1
2017-01-25T09:49:48.994Z,26.1
2017-01-25T09:50:51.478Z,26.1
2017-01-25T09:51:49.395Z,26.1
2017-01-25T09:52:50.070Z,26.1
2017-01-25T09:53:50.414Z,26.1
2017-01-25T09:54:51.176Z,26.1
2017-01-25T09:55:51.121Z,26.1
2017-01-25T09:56:50.781Z,26.1
2017-01-25T09:57:49.634Z,26.1
2017-01-25T09:58:49.907Z,26.1
2017-01-25T09:59:49.488Z,26.1
2017-01-25T10:00:50.723Z,26.1
2017-01-25T10:01:49.729Z,26.1
2017-01-25T10:02:50.616Z,26
2017-01-25T10:03:49.975Z,26
2017-01-25T10:04:50.241Z,26
2017-01-25T10:05:49.984Z,26
2017-01-25T10:06:51.354Z,26
2017-01-25T10:07:51.192Z,26
2017-01-25T10:08:51.973Z,26
2017-01-25T10:09:50.159Z,26
2017-01-25T10:10:51.963Z,25.9
2017-01-25T10:11:50.276Z,25.9
2017-01-25T10:12:50.300Z,25.9
2017-01-25T10:13:50.359Z,25.9
2017-01-25T10:14:50.303Z,25.8
2017-01-25T10:15:52.222Z,25.8
2017-01-25T10:16:52.505Z,25.8
2017-01-25T10:17:50.550Z,25.7
2017-01-25T10:18:50.650Z,25.7
2017-01-25T10:19:51.749Z,25.7
2017-01-25T10:20:51.456Z,25.6
2017-01-25T10:21:50.850Z,25.6
2017-01-25T10:22:51.902Z,25.6
2017-01-25T10:23:50.955Z,25.5
2017-01-25T10:24:52.464Z,25.5
2017-01-25T10:25:50.915Z,25.4
2017-01-25T10:26:52.022Z,25.4
2017-01-25T10:27:50.975Z,25.4
2017-01-25T10:28:51.426Z,25.4
2017-01-25T10:29:52.135Z,25.3
2017-01-25T10:30:52.732Z,25.3
2017-01-25T10:31:51.112Z,25.3
2017-01-25T10:32:52.145Z,25.2
2017-01-25T10:33:51.188Z,25.2
2017-01-25T10:34:53.383Z,25.3
2017-01-25T10:35:51.200Z,25.2
2017-01-25T10:36:51.947Z,25.2
2017-01-25T10:37:52.408Z,25.2
2017-01-25T10:38:52.512Z,25.2
2017-01-25T10:39:51.536Z,25.2
2017-01-25T10:40:53.900Z,25.1
2017-01-25T10:41:52.782Z,25.1
2017-01-25T10:42:53.765Z,25.1
2017-01-25T10:43:54.526Z,25.1
2017-01-25T10:44:56.136Z,25.1
2017-01-25T10:45:53.471Z,25.1
2017-01-25T10:46:54.744Z,25.1
2017-01-25T10:47:56.092Z,25.1
2017-01-25T10:48:54.184Z,25.1
2017-01-25T10:49:56.272Z,25.1
2017-01-25T10:50:52.933Z,25.1
2017-01-25T10:51:53.669Z,25
2017-01-25T10:52:54.522Z,25
2017-01-25T10:53:55.767Z,25
2017-01-25T10:54:55.532Z,25
2017-01-25T10:55:53.998Z,25
2017-01-25T10:56:52.449Z,25
2017-01-25T10:57:52.458Z,25
2017-01-25T10:58:53.739Z,25
2017-01-25T10:59:52.399Z,25
2017-01-25T11:00:53.369Z,25
2017-01-25T11:01:52.617Z,25
2017-01-25T11:02:54.902Z,24.9
2017-01-25T11:03:53.776Z,24.9
2017-01-25T11:04:54.201Z,25
2017-01-25T11:05:54.665Z,24.9
2017-01-25T11:06:54.691Z,24.9
2017-01-25T11:07:52.923Z,24.8
2017-01-25T11:08:54.751Z,24.8
2017-01-25T11:09:53.222Z,24.8
2017-01-25T11:10:53.417Z,24.8
2017-01-25T11:11:53.801Z,24.8
2017-01-25T11:12:55.065Z,24.7
2017-01-25T11:13:53.264Z,24.7
2017-01-25T11:14:54.380Z,24.6
2017-01-25T11:15:55.780Z,24.6
2017-01-25T11:16:54.828Z,24.5
2017-01-25T11:17:54.128Z,24.4
2017-01-25T11:18:53.488Z,24.4
2017-01-25T11:19:54.699Z,24.3
2017-01-25T11:20:54.661Z,24.3
2017-01-25T11:21:54.808Z,24.1
2017-01-25T11:22:53.924Z,23.9
2017-01-25T11:23:55.476Z,23.7
2017-01-25T11:24:55.926Z,23.4
2017-01-25T11:25:55.006Z,23.2
2017-01-25T11:26:55.014Z,23
2017-01-25T11:27:55.108Z,22.8
2017-01-25T11:28:54.906Z,22.6
2017-01-25T11:29:54.815Z,22.4
2017-01-25T11:30:55.191Z,22.2
2017-01-25T11:31:55.214Z,22
2017-01-25T11:32:54.227Z,21.9
2017-01-25T11:33:54.143Z,21.7
2017-01-25T11:34:54.445Z,21.6
2017-01-25T11:35:54.310Z,21.5
2017-01-25T11:36:54.308Z,21.3
2017-01-25T11:37:54.965Z,21.4
2017-01-25T11:38:55.091Z,21.5
2017-01-25T11:39:55.556Z,21.7
2017-01-25T11:40:55.771Z,21.9
2017-01-25T11:41:55.674Z,22.1
2017-01-25T11:42:54.479Z,22.2
2017-01-25T11:43:56.810Z,22.4
2017-01-25T11:44:55.864Z,22.5
2017-01-25T11:45:55.794Z,22.7
2017-01-25T11:46:55.966Z,22.8
2017-01-25T11:47:55.823Z,22.9
2017-01-25T11:48:54.675Z,23
2017-01-25T11:49:56.575Z,23.1
2017-01-25T11:50:55.959Z,23.2
2017-01-25T11:51:56.523Z,23.3
2017-01-25T11:52:56.382Z,23.4
2017-01-25T11:53:54.977Z,23.4
2017-01-25T11:54:56.897Z,23.5
2017-01-25T11:55:55.203Z,23.5
2017-01-25T11:56:57.511Z,23.6
2017-01-25T11:57:56.344Z,23.6
2017-01-25T11:58:57.262Z,23.7
2017-01-25T11:59:55.763Z,23.7
2017-01-25T12:00:56.100Z,23.8
2017-01-25T12:01:56.058Z,23.8
2017-01-25T12:02:56.097Z,23.8
2017-01-25T12:03:57.408Z,23.9
2017-01-25T12:04:57.043Z,23.9
2017-01-25T12:05:56.685Z,23.9
2017-01-25T12:06:56.278Z,24
2017-01-25T12:07:56.808Z,24
2017-01-25T12:08:58.066Z,24.1
2017-01-25T12:09:56.709Z,23.8
2017-01-25T12:10:56.860Z,23.7
2017-01-25T12:11:55.953Z,23.5
2017-01-25T12:12:55.956Z,23.3
2017-01-25T12:13:55.987Z,23.2
2017-01-25T12:14:56.188Z,23.1
2017-01-25T12:15:57.290Z,23
2017-01-25T12:16:56.949Z,23
2017-01-25T12:17:57.328Z,22.9
2017-01-25T12:18:56.872Z,22.9
2017-01-25T12:19:57.317Z,22.8
2017-01-25T12:20:57.272Z,22.7
2017-01-25T12:21:57.168Z,22.7
2017-01-25T12:22:58.573Z,22.5
2017-01-25T12:23:59.187Z,22.4
2017-01-25T12:24:57.301Z,22.4
2017-01-25T12:26:01.189Z,22.3
2017-01-25T12:26:59.205Z,22.2
2017-01-25T12:27:57.737Z,22.1
2017-01-25T12:28:56.899Z,22
2017-01-25T12:29:57.580Z,21.9
2017-01-25T12:31:00.704Z,21.8
2017-01-25T12:31:59.328Z,21.8
2017-01-25T12:32:58.172Z,21.7
2017-01-25T12:33:58.038Z,21.6
2017-01-25T12:34:57.315Z,21.6
2017-01-25T12:36:00.026Z,21.5
2017-01-25T12:37:00.579Z,21.4
2017-01-25T12:37:58.977Z,21.3
2017-01-25T12:39:00.618Z,21.3
2017-01-25T12:39:58.972Z,21.2
2017-01-25T12:40:58.676Z,21.2
2017-01-25T12:41:58.280Z,21.1
2017-01-25T12:42:58.096Z,21
2017-01-25T12:43:57.554Z,21
2017-01-25T12:44:57.533Z,20.9
2017-01-25T12:45:58.764Z,20.9
2017-01-25T12:46:57.966Z,20.8
2017-01-25T12:47:59.285Z,20.8
2017-01-25T12:48:59.017Z,20.8
2017-01-25T12:49:58.915Z,20.8
2017-01-25T12:50:59.642Z,20.7
2017-01-25T12:52:01.598Z,20.7
2017-01-25T12:53:01.387Z,20.8
2017-01-25T12:53:59.745Z,20.9
2017-01-25T12:54:58.719Z,20.9
2017-01-25T12:55:59.533Z,20.9
2017-01-25T12:56:58.019Z,20.9
2017-01-25T12:57:58.151Z,20.9
2017-01-25T12:58:59.180Z,20.8
2017-01-25T12:59:59.947Z,20.8
2017-01-25T13:00:58.349Z,20.8
2017-01-25T13:01:58.338Z,20.8
2017-01-25T13:02:59.479Z,20.8
2017-01-25T13:03:59.995Z,20.8
2017-01-25T13:04:58.788Z,20.8
2017-01-25T13:05:58.574Z,20.8
2017-01-25T13:07:00.446Z,20.8
2017-01-25T13:07:58.688Z,20.8
2017-01-25T13:08:59.779Z,20.9
2017-01-25T13:09:58.769Z,20.8
2017-01-25T13:11:03.438Z,20.8
2017-01-25T13:12:00.956Z,20.9
2017-01-25T13:13:03.524Z,20.9
2017-01-25T13:14:00.691Z,20.9
2017-01-25T13:14:59.531Z,20.9
2017-01-25T13:16:00.054Z,20.9
2017-01-25T13:17:00.450Z,20.9
2017-01-25T13:17:59.927Z,20.9
2017-01-25T13:18:59.411Z,20.9
2017-01-25T13:19:59.344Z,20.9
2017-01-25T13:21:01.253Z,20.9
2017-01-25T13:22:00.590Z,20.9
2017-01-25T13:23:03.790Z,20.9
2017-01-25T13:24:03.715Z,21
2017-01-25T13:25:06.263Z,21
2017-01-25T13:26:03.935Z,21
2017-01-25T13:27:10.002Z,21
2017-01-25T13:28:06.474Z,21
2017-01-25T13:29:03.256Z,21
2017-01-25T13:30:03.107Z,21.1
2017-01-25T13:30:59.746Z,21.1